Time;durP1;ratioP1;P1;durP2;ratioP2;P2;SDS_P1;SDS_P2;PMS_P1;PMS_P2;Temp;Humidity;BMP_temperature;BMP_pressure;BME280_temperature;BME280_humidity;BME280_pressure;Samples;Min_cycle;Max_cycle;Signal;HPM_P1;HPM_P2
2021/05/25 00:02:27;;;;;;;;;;;;;;;19.68;67.99;101436.81;5023824;28;1884;-46
2021/05/25 00:04:53;;;;;;;;;;;;;;;19.70;67.70;101434.00;5013950;28;1898;-46
2021/05/25 00:07:19;;;;;;;;;;;;;;;19.62;67.20;101423.06;5014652;28;1417;-46
2021/05/25 00:09:45;;;;;;;;;;;;;;;19.63;67.96;101420.22;5021270;28;1763;-46
2021/05/25 00:12:12;;;;;;;;;;;;;;;19.59;67.57;101434.00;5016715;28;1612;-45
2021/05/25 00:14:39;;;;;;;;;;;;;;;19.61;67.71;101426.69;4995795;28;1680;-46
2021/05/25 00:17:15;;;;;;;;;;;;;;;19.58;67.83;101425.13;5014182;28;1621;-47
2021/05/25 00:19:41;;;;;;;;;;;;;;;19.61;68.53;101413.28;5016553;28;997;-46
2021/05/25 00:22:08;;;;;;;;;;;;;;;19.60;67.36;101408.91;5019959;28;1484;-45
2021/05/25 00:24:35;;;;;;;;;;;;;;;19.60;67.93;101414.28;5026415;28;1974;-45
2021/05/25 00:27:01;;;;;;;;;;;;;;;19.62;67.21;101423.06;5014066;28;1429;-46
2021/05/25 00:29:28;;;;;;;;;;;;;;;19.59;66.29;101402.66;5013688;28;1757;-47
2021/05/25 00:31:54;;;;;;;;;;;;;;;19.59;65.66;101405.34;5020184;28;1093;-46
2021/05/25 00:34:24;;;;;;;;;;;;;;;19.58;68.06;101402.81;5017393;28;2527;-46
2021/05/25 00:36:50;;;;;;;;;;;;;;;19.62;66.78;101401.59;5017362;28;1517;-47
2021/05/25 00:39:16;;;;;;;;;;;;;;;19.60;67.29;101398.19;5023522;28;1961;-46
2021/05/25 00:41:43;;;;;;;;;;;;;;;19.57;65.50;101398.41;5024536;28;1431;-46
2021/05/25 00:44:12;;;;;;;;;;;;;;;19.58;68.04;101392.06;5024349;28;1910;-46
2021/05/25 00:46:41;;;;;;;;;;;;;;;19.63;67.02;101390.69;5013619;28;1953;-46
2021/05/25 00:49:07;;;;;;;;;;;;;;;19.60;67.39;101387.44;5015606;28;1846;-46
2021/05/25 00:51:38;;;;;;;;;;;;;;;19.57;66.75;101387.69;5014343;28;1780;-45
2021/05/25 00:54:05;;;;;;;;;;;;;;;19.59;67.31;101380.34;5018056;28;1625;-46
2021/05/25 00:56:32;;;;;;;;;;;;;;;19.62;67.36;101388.16;5016937;28;1791;-46
2021/05/25 00:59:00;;;;;;;;;;;;;;;19.59;66.58;101375.84;5013891;28;1163;-46
2021/05/25 01:01:27;;;;;;;;;;;;;;;19.56;65.61;101369.88;5013075;28;1826;-46
2021/05/25 01:03:55;;;;;;;;;;;;;;;19.60;65.96;101371.34;5012972;28;1913;-46
2021/05/25 01:06:22;;;;;;;;;;;;;;;19.61;67.71;101373.03;5017989;28;1604;-46
2021/05/25 01:08:49;;;;;;;;;;;;;;;19.60;67.60;101374.03;5015485;28;1257;-46
2021/05/25 01:11:18;;;;;;;;;;;;;;;19.58;66.30;101354.53;5013100;28;1629;-46
2021/05/25 01:13:49;;;;;;;;;;;;;;;19.55;67.10;101369.00;5013970;28;1033;-46
2021/05/25 01:16:16;;;;;;;;;;;;;;;19.56;65.90;101359.16;5014829;28;1823;-46
2021/05/25 01:18:42;;;;;;;;;;;;;;;19.60;67.00;101371.34;5021441;28;1811;-46
2021/05/25 01:21:09;;;;;;;;;;;;;;;19.60;66.82;101365.97;5022713;28;1817;-46
2021/05/25 01:23:36;;;;;;;;;;;;;;;19.55;66.14;101368.16;5017823;28;1977;-46
2021/05/25 01:26:03;;;;;;;;;;;;;;;19.58;65.75;101358.06;5017101;28;1840;-46
2021/05/25 01:28:30;;;;;;;;;;;;;;;19.58;66.01;101352.69;5025016;28;1083;-46
2021/05/25 01:31:00;;;;;;;;;;;;;;;19.58;67.27;101351.84;5019607;28;1680;-47
2021/05/25 01:33:38;;;;;;;;;;;;;;;19.59;66.68;101348.16;5017964;28;1698;-46
2021/05/25 01:36:04;;;;;;;;;;;;;;;19.60;65.78;101347.19;5022973;28;1986;-46
2021/05/25 01:38:31;;;;;;;;;;;;;;;19.62;67.20;101342.56;5024850;28;1505;-46
2021/05/25 01:41:00;;;;;;;;;;;;;;;19.62;67.77;101339.88;5010022;28;1640;-46
2021/05/25 01:43:26;;;;;;;;;;;;;;;19.61;67.08;101340.84;5023477;28;1910;-46
2021/05/25 01:45:52;;;;;;;;;;;;;;;19.61;67.80;101330.94;5013523;28;1498;-46
2021/05/25 01:48:18;;;;;;;;;;;;;;;19.58;67.40;101333.91;5014928;28;1611;-46
2021/05/25 01:50:44;;;;;;;;;;;;;;;19.59;66.88;101321.34;5016395;28;1680;-46
2021/05/25 01:53:11;;;;;;;;;;;;;;;19.60;66.13;101334.63;5012684;28;1560;-46
2021/05/25 01:55:38;;;;;;;;;;;;;;;19.61;67.12;101330.09;5013037;28;1427;-47
2021/05/25 01:58:10;;;;;;;;;;;;;;;19.59;66.36;101327.53;5013148;28;1478;-46
2021/05/25 02:01:06;;;;;;;;;;;;;;;19.63;66.46;101338.88;5046337;23;3832;-78
2021/05/25 02:03:32;;;;;;;;;;;;;;;19.61;65.85;101332.78;5060231;22;3780;-46
2021/05/25 02:05:58;;;;;;;;;;;;;;;19.62;67.95;101330.00;5054661;28;1363;-46
2021/05/25 02:08:25;;;;;;;;;;;;;;;19.61;66.67;101319.38;5053932;28;1669;-48
2021/05/25 02:10:54;;;;;;;;;;;;;;;19.62;67.43;101326.47;5051224;28;1417;-47
2021/05/25 02:13:22;;;;;;;;;;;;;;;19.60;65.56;101323.91;5049591;28;1443;-46
2021/05/25 02:15:49;;;;;;;;;;;;;;;19.59;65.87;101326.69;5051602;28;1544;-47
2021/05/25 02:18:17;;;;;;;;;;;;;;;19.61;64.87;101324.75;5054650;28;1416;-46
2021/05/25 02:20:44;;;;;;;;;;;;;;;19.62;66.22;101331.81;5073667;28;1172;-47
2021/05/25 02:23:12;;;;;;;;;;;;;;;19.59;65.27;101327.53;5056984;28;1910;-46
2021/05/25 02:25:40;;;;;;;;;;;;;;;19.60;65.04;101323.06;5054843;28;1718;-47
2021/05/25 02:28:08;;;;;;;;;;;;;;;19.61;65.55;101314.84;5054865;28;1937;-47
2021/05/25 02:30:36;;;;;;;;;;;;;;;19.59;65.75;101319.50;5055393;28;1451;-47
2021/05/25 02:33:06;;;;;;;;;;;;;;;19.60;65.30;101328.41;5057632;28;1617;-46
2021/05/25 02:35:33;;;;;;;;;;;;;;;19.63;64.48;101330.84;5054497;28;1476;-46
2021/05/25 02:37:59;;;;;;;;;;;;;;;19.61;65.36;101324.75;5056238;28;1363;-47
2021/05/25 02:40:26;;;;;;;;;;;;;;;19.65;65.18;101337.75;5061800;28;1401;-47
2021/05/25 02:42:53;;;;;;;;;;;;;;;19.56;65.30;101321.59;5055122;28;1311;-47
2021/05/25 02:45:19;;;;;;;;;;;;;;;19.66;64.72;101333.28;5054283;28;2064;-47
2021/05/25 02:47:46;;;;;;;;;;;;;;;19.61;64.93;101332.78;5055655;28;1372;-47
2021/05/25 02:50:15;;;;;;;;;;;;;;;19.59;65.16;101326.69;5057143;28;1525;-46
2021/05/25 02:52:43;;;;;;;;;;;;;;;19.59;64.89;101315.97;5051183;28;1541;-47
2021/05/25 02:55:12;;;;;;;;;;;;;;;19.58;64.88;101327.69;5055008;28;1347;-49
2021/05/25 02:57:39;;;;;;;;;;;;;;;19.56;64.60;101332.34;5059159;28;1334;-48
2021/05/25 03:00:07;;;;;;;;;;;;;;;19.55;64.98;101327.94;5053414;28;1439;-48
2021/05/25 03:02:33;;;;;;;;;;;;;;;19.59;64.59;101338.28;5052907;28;1793;-47
2021/05/25 03:04:59;;;;;;;;;;;;;;;19.55;65.17;101336.81;5055354;28;1989;-46
2021/05/25 03:07:25;;;;;;;;;;;;;;;19.57;64.40;101347.44;5049708;28;2108;-46
2021/05/25 03:09:51;;;;;;;;;;;;;;;19.55;64.37;101349.38;5053200;28;1794;-48
2021/05/25 03:12:17;;;;;;;;;;;;;;;19.55;65.93;101344.03;5046152;28;1511;-47
2021/05/25 03:14:44;;;;;;;;;;;;;;;19.56;65.19;101351.09;5048670;28;1652;-47
2021/05/25 03:17:10;;;;;;;;;;;;;;;19.54;65.76;101345.03;5048743;28;1521;-47
2021/05/25 03:19:36;;;;;;;;;;;;;;;19.55;64.99;101346.72;5056997;28;1196;-47
2021/05/25 03:22:02;;;;;;;;;;;;;;;19.57;64.44;101350.13;5059728;28;1764;-47
2021/05/25 03:24:29;;;;;;;;;;;;;;;19.57;66.27;101355.47;5066749;28;1964;-47
2021/05/25 03:26:55;;;;;;;;;;;;;;;19.56;65.99;101354.63;5056450;28;1615;-46
2021/05/25 03:29:21;;;;;;;;;;;;;;;19.55;64.84;101352.06;5071236;28;1114;-47
2021/05/25 03:31:47;;;;;;;;;;;;;;;19.66;64.49;101354.75;5063533;28;1976;-48
2021/05/25 03:34:13;;;;;;;;;;;;;;;19.65;64.37;101358.38;5055837;28;1830;-48
2021/05/25 03:36:39;;;;;;;;;;;;;;;19.59;64.25;101358.88;5065907;28;1856;-47
2021/05/25 03:39:06;;;;;;;;;;;;;;;19.68;63.83;101368.88;5061103;28;1514;-47
2021/05/25 03:41:32;;;;;;;;;;;;;;;19.68;65.29;101358.16;5062388;28;1676;-47
2021/05/25 03:43:59;;;;;;;;;;;;;;;19.70;65.55;101355.34;5058875;28;1910;-47
2021/05/25 03:46:25;;;;;;;;;;;;;;;19.68;65.07;101366.19;5046667;28;1965;-47
2021/05/25 03:48:51;;;;;;;;;;;;;;;19.81;66.26;101358.84;5057554;28;1370;-47
2021/05/25 03:51:17;;;;;;;;;;;;;;;19.88;67.02;101358.38;5051608;28;1586;-47
2021/05/25 03:53:43;;;;;;;;;;;;;;;19.87;66.37;101338.72;5046462;28;1517;-48
2021/05/25 03:56:18;;;;;;;;;;;;;;;19.91;66.56;101342.00;5041045;28;1545;-47
2021/05/25 03:58:48;;;;;;;;;;;;;;;19.97;65.50;101352.22;5041486;28;1301;-48
2021/05/25 04:01:16;;;;;;;;;;;;;;;20.01;65.28;101356.34;5044465;28;2086;-47
2021/05/25 04:03:42;;;;;;;;;;;;;;;20.01;65.77;101365.25;5045454;28;1971;-46
2021/05/25 04:06:08;;;;;;;;;;;;;;;20.03;66.05;101357.09;5048598;28;1508;-47
2021/05/25 04:08:34;;;;;;;;;;;;;;;20.03;66.66;101357.09;5043294;28;1540;-47
2021/05/25 04:11:00;;;;;;;;;;;;;;;20.03;65.95;101359.78;5044664;28;1511;-48
2021/05/25 04:13:26;;;;;;;;;;;;;;;20.04;67.23;101358.81;5036248;28;1480;-47
2021/05/25 04:15:54;;;;;;;;;;;;;;;20.08;67.14;101370.16;5042581;28;1633;-49
2021/05/25 04:18:20;;;;;;;;;;;;;;;20.11;66.39;101359.13;5041884;28;1214;-47
2021/05/25 04:20:47;;;;;;;;;;;;;;;20.09;66.47;101345.81;5041363;28;1627;-47
2021/05/25 04:23:13;;;;;;;;;;;;;;;20.13;66.32;101349.97;5049918;28;1986;-47
2021/05/25 04:25:39;;;;;;;;;;;;;;;20.13;66.99;101352.66;5044710;28;1468;-47
2021/05/25 04:28:06;;;;;;;;;;;;;;;20.14;66.82;101345.47;5050430;28;1426;-47
2021/05/25 04:30:33;;;;;;;;;;;;;;;20.20;66.29;101361.06;5051608;28;1409;-46
2021/05/25 04:33:01;;;;;;;;;;;;;;;20.29;66.71;101362.94;5050043;28;1764;-48
2021/05/25 04:35:28;;;;;;;;;;;;;;;20.32;66.71;101351.97;5044600;28;1570;-46
2021/05/25 04:37:57;;;;;;;;;;;;;;;20.34;65.64;101346.47;5038272;28;2136;-46
2021/05/25 04:40:25;;;;;;;;;;;;;;;20.35;66.11;101353.53;5047355;28;1657;-46
2021/05/25 04:43:12;;;;;;;;;;;;;;;20.34;66.16;101336.56;5044265;28;1621;-48
2021/05/25 04:45:43;;;;;;;;;;;;;;;20.35;66.22;101356.22;5051070;28;1495;-47
2021/05/25 04:48:10;;;;;;;;;;;;;;;20.34;65.23;101344.63;5049385;28;1563;-47
2021/05/25 04:50:38;;;;;;;;;;;;;;;20.35;65.24;101351.72;5047947;28;1698;-46
2021/05/25 04:53:04;;;;;;;;;;;;;;;20.37;65.93;101340.81;5053978;28;1458;-47
2021/05/25 04:55:34;;;;;;;;;;;;;;;20.37;65.81;101348.88;5050908;28;1545;-47
2021/05/25 04:58:00;;;;;;;;;;;;;;;20.34;65.47;101344.63;5043061;28;1317;-49
2021/05/25 05:00:30;;;;;;;;;;;;;;;20.39;65.01;101357.66;5045915;28;1785;-46
2021/05/25 05:03:15;;;;;;;;;;;;;;;20.40;65.16;101359.38;5043456;28;1702;-48
2021/05/25 05:05:46;;;;;;;;;;;;;;;20.39;65.95;101365.72;5044630;28;1570;-47
2021/05/25 05:08:12;;;;;;;;;;;;;;;20.38;65.98;101390.88;5042968;28;1601;-46
2021/05/25 05:10:38;;;;;;;;;;;;;;;20.39;64.99;101397.94;5040456;28;1510;-47
2021/05/25 05:13:09;;;;;;;;;;;;;;;20.40;65.23;101418.47;5042531;28;1417;-46
2021/05/25 05:15:37;;;;;;;;;;;;;;;20.37;65.92;101424.09;5039501;28;1501;-49
2021/05/25 05:18:07;;;;;;;;;;;;;;;20.36;66.23;101423.25;5044749;28;1605;-47
2021/05/25 05:20:32;;;;;;;;;;;;;;;20.36;65.19;101435.81;5049289;28;1395;-46
2021/05/25 05:23:00;;;;;;;;;;;;;;;20.37;65.57;101440.19;5052433;28;1576;-47
2021/05/25 05:25:54;;;;;;;;;;;;;;;20.31;65.31;101444.25;5042897;28;1969;-46
2021/05/25 05:28:20;;;;;;;;;;;;;;;20.21;66.73;101448.69;5043413;28;2361;-49
2021/05/25 05:30:48;;;;;;;;;;;;;;;20.15;66.42;101444.66;5044739;28;1773;-47
2021/05/25 05:33:17;;;;;;;;;;;;;;;20.20;66.19;101447.84;5047524;28;1371;-48
2021/05/25 05:35:45;;;;;;;;;;;;;;;20.22;66.62;101437.81;5049850;28;1819;-46
2021/05/25 05:38:17;;;;;;;;;;;;;;;20.31;66.46;101456.84;5045839;28;1620;-46
2021/05/25 05:40:43;;;;;;;;;;;;;;;20.33;67.01;101436.06;5048661;28;1537;-46
2021/05/25 05:43:18;;;;;;;;;;;;;;;20.29;66.93;101445.38;5052622;28;1610;-48
2021/05/25 05:45:48;;;;;;;;;;;;;;;20.28;67.55;101441.84;5049438;28;1741;-46
2021/05/25 05:48:14;;;;;;;;;;;;;;;20.27;66.97;101430.25;5051154;28;1940;-47
2021/05/25 05:53:23;;;;;;;;;;;;;;;20.24;68.03;101414.38;5042943;28;1596;-47
2021/05/25 05:55:56;;;;;;;;;;;;;;;20.30;67.08;101406.78;5051054;28;1624;-48
2021/05/25 05:58:29;;;;;;;;;;;;;;;20.29;67.70;101397.88;5051766;28;1550;-46
2021/05/25 06:03:39;;;;;;;;;;;;;;;20.35;67.82;101401.88;5057154;28;2500;-47
2021/05/25 06:06:05;;;;;;;;;;;;;;;20.40;68.12;101397.81;5050549;28;1647;-47
2021/05/25 06:08:34;;;;;;;;;;;;;;;20.39;68.43;101401.50;5051389;28;1890;-48
2021/05/25 06:11:00;;;;;;;;;;;;;;;20.33;68.43;101403.84;5047452;28;1691;-48
2021/05/25 06:13:27;;;;;;;;;;;;;;;20.35;68.12;101412.63;5055071;28;1522;-47
2021/05/25 06:15:58;;;;;;;;;;;;;;;20.44;69.16;101414.53;5053431;28;1798;-47
2021/05/25 06:18:27;;;;;;;;;;;;;;;20.47;68.34;101430.38;5057230;28;1622;-47
2021/05/25 06:20:53;;;;;;;;;;;;;;;20.39;69.19;101419.44;5046059;28;1477;-46
2021/05/25 06:23:20;;;;;;;;;;;;;;;20.36;69.13;101435.81;5042230;28;2038;-47
2021/05/25 06:25:47;;;;;;;;;;;;;;;20.34;68.64;101445.84;5052516;28;1789;-47
2021/05/25 06:28:15;;;;;;;;;;;;;;;20.31;68.47;101446.94;5052708;28;1644;-47
2021/05/25 06:30:43;;;;;;;;;;;;;;;20.29;68.41;101432.78;5048724;28;1595;-47
2021/05/25 06:33:10;;;;;;;;;;;;;;;20.33;69.13;101449.50;5041761;28;1548;-48
2021/05/25 06:35:36;;;;;;;;;;;;;;;20.32;68.46;101455.88;5056179;28;1685;-46
2021/05/25 06:38:02;;;;;;;;;;;;;;;20.28;69.31;101441.84;5057374;28;1643;-46
2021/05/25 06:40:28;;;;;;;;;;;;;;;20.29;68.73;101438.16;5058932;28;1859;-46
2021/05/25 06:42:55;;;;;;;;;;;;;;;20.27;69.37;101424.00;5049371;28;1555;-47
2021/05/25 06:45:21;;;;;;;;;;;;;;;20.29;68.86;101416.66;5042138;28;1979;-47
2021/05/25 06:47:47;;;;;;;;;;;;;;;20.30;69.16;101439.88;5047262;28;1638;-46
2021/05/25 06:50:14;;;;;;;;;;;;;;;20.39;68.57;101444.50;5038492;28;1558;-46
2021/05/25 06:52:40;;;;;;;;;;;;;;;20.35;68.72;101448.41;5040465;28;1691;-48
2021/05/25 06:55:07;;;;;;;;;;;;;;;20.33;68.47;101442.28;5054701;28;1811;-49
2021/05/25 06:57:33;;;;;;;;;;;;;;;20.32;68.90;101437.06;5057742;28;1733;-46
2021/05/25 07:00:00;;;;;;;;;;;;;;;20.35;68.38;101439.47;5053080;28;1467;-48
2021/05/25 07:02:26;;;;;;;;;;;;;;;20.33;68.70;101449.50;5051229;28;1798;-47
2021/05/25 07:04:52;;;;;;;;;;;;;;;20.32;68.56;101431.69;5046805;28;1969;-47
2021/05/25 07:07:18;;;;;;;;;;;;;;;20.24;68.61;101427.81;5047416;28;1660;-46
2021/05/25 07:09:44;;;;;;;;;;;;;;;20.26;69.04;101423.16;5055994;28;1955;-47
2021/05/25 07:12:11;;;;;;;;;;;;;;;20.29;68.74;101422.03;5059534;28;1875;-47
2021/05/25 07:14:37;;;;;;;;;;;;;;;20.26;68.62;101398.97;5048337;28;1487;-47
2021/05/25 07:17:04;;;;;;;;;;;;;;;20.28;68.36;101401.56;5059004;28;1588;-48
2021/05/25 07:19:30;;;;;;;;;;;;;;;20.30;68.69;101398.75;5049995;28;2055;-47
2021/05/25 07:21:57;;;;;;;;;;;;;;;20.32;68.25;101411.06;5042658;28;1789;-49
2021/05/25 07:24:23;;;;;;;;;;;;;;;20.36;67.87;101396.38;5049005;28;1914;-47
2021/05/25 07:26:49;;;;;;;;;;;;;;;20.41;68.57;101393.28;5049906;28;1639;-47
2021/05/25 07:29:15;;;;;;;;;;;;;;;20.39;67.54;101376.47;5048647;28;1736;-45
2021/05/25 07:31:41;;;;;;;;;;;;;;;20.38;68.65;101380.13;5047789;28;1525;-45
2021/05/25 07:34:07;;;;;;;;;;;;;;;20.41;68.39;101355.69;5051421;28;1515;-47
2021/05/25 07:36:33;;;;;;;;;;;;;;;20.38;68.16;101377.47;5049865;28;1783;-44
2021/05/25 07:38:59;;;;;;;;;;;;;;;20.42;68.37;101360.09;5050568;28;1714;-45
2021/05/25 07:41:25;;;;;;;;;;;;;;;20.43;67.90;101383.28;5049826;28;1791;-44
2021/05/25 07:43:51;;;;;;;;;;;;;;;20.40;67.98;101362.06;5065105;28;1901;-44
2021/05/25 07:46:18;;;;;;;;;;;;;;;20.39;68.55;101352.28;5050574;28;1555;-46
2021/05/25 07:48:44;;;;;;;;;;;;;;;20.48;67.63;101372.16;5049486;28;1543;-45
2021/05/25 07:51:11;;;;;;;;;;;;;;;20.44;67.82;101372.41;5055552;28;1853;-45
2021/05/25 07:53:37;;;;;;;;;;;;;;;20.45;68.17;101373.25;5056587;28;1872;-47
2021/05/25 07:56:03;;;;;;;;;;;;;;;20.52;68.01;101369.06;5048548;28;1568;-45
2021/05/25 07:58:29;;;;;;;;;;;;;;;20.57;68.30;101376.72;5053705;28;1542;-48
2021/05/25 08:00:58;;;;;;;;;;;;;;;20.56;67.67;101377.72;5054925;28;1903;-48
2021/05/25 08:03:28;;;;;;;;;;;;;;;20.53;67.16;101375.28;5044915;28;1624;-47
2021/05/25 08:05:59;;;;;;;;;;;;;;;20.51;67.81;101383.47;5042424;28;1797;-47
2021/05/25 08:08:30;;;;;;;;;;;;;;;20.45;66.87;101386.69;5045527;28;1521;-47
2021/05/25 08:10:58;;;;;;;;;;;;;;;20.42;68.39;101373.53;5047439;28;1534;-46
2021/05/25 08:13:26;;;;;;;;;;;;;;;20.41;68.03;101379.88;5052864;28;1489;-46
2021/05/25 08:15:54;;;;;;;;;;;;;;;20.63;67.15;101398.59;5054121;28;1686;-47
2021/05/25 08:18:39;;;;;;;;;;;;;;;20.51;64.54;101385.31;5047177;28;1846;-47
2021/05/25 08:21:09;;;;;;;;;;;;;;;20.43;65.81;101397.59;5049733;28;1407;-47
2021/05/25 08:23:52;;;;;;;;;;;;;;;20.47;65.38;101414.28;5045209;28;1910;-46
2021/05/25 08:26:26;;;;;;;;;;;;;;;20.56;65.99;101383.94;5045390;28;1558;-47
2021/05/25 08:29:00;;;;;;;;;;;;;;;20.43;66.54;101385.97;5044584;28;2002;-46
2021/05/25 08:31:29;;;;;;;;;;;;;;;20.46;65.94;101391.09;5047465;28;1487;-48
2021/05/25 08:33:56;;;;;;;;;;;;;;;20.46;65.36;101385.72;5048459;28;1948;-47
2021/05/25 08:36:25;;;;;;;;;;;;;;;20.46;66.43;101391.94;5047158;28;1870;-47
2021/05/25 08:38:55;;;;;;;;;;;;;;;20.44;66.11;101375.09;5047372;28;1688;-47
2021/05/25 08:41:26;;;;;;;;;;;;;;;20.43;66.09;101372.53;5043811;28;1660;-47
2021/05/25 08:43:58;;;;;;;;;;;;;;;20.46;65.50;101377.66;5037988;28;1972;-47
2021/05/25 08:46:27;;;;;;;;;;;;;;;20.50;65.45;101376.41;5045142;28;1665;-48
2021/05/25 08:49:01;;;;;;;;;;;;;;;20.48;65.91;101378.38;5062801;28;1595;-48
2021/05/25 08:51:28;;;;;;;;;;;;;;;20.47;65.13;101382.03;5049274;28;1559;-48
2021/05/25 08:53:54;;;;;;;;;;;;;;;20.54;65.09;101391.28;5045154;28;1530;-49
2021/05/25 08:56:21;;;;;;;;;;;;;;;20.50;66.33;101392.53;5043023;28;1482;-49
2021/05/25 08:58:52;;;;;;;;;;;;;;;20.44;64.80;101388.53;5042347;28;1739;-48
2021/05/25 09:01:18;;;;;;;;;;;;;;;20.41;65.39;101385.25;5040968;28;1422;-48
2021/05/25 09:04:18;;;;;;;;;;;;;;;20.44;64.95;101387.69;5046384;28;1923;-48
2021/05/25 09:06:45;;;;;;;;;;;;;;;20.52;65.23;101400.47;5054163;28;1634;-48
2021/05/25 09:09:13;;;;;;;;;;;;;;;20.40;64.40;101408.56;5058160;28;1521;-49
2021/05/25 09:11:57;;;;;;;;;;;;;;;20.44;64.98;101406.47;5050162;28;1485;-48
2021/05/25 09:14:23;;;;;;;;;;;;;;;20.55;65.42;101405.56;5053756;28;1470;-49
2021/05/25 09:16:50;;;;;;;;;;;;;;;20.47;64.78;101403.53;5052090;28;1398;-48
2021/05/25 09:19:16;;;;;;;;;;;;;;;20.40;65.13;101384.41;5052695;28;1965;-49
2021/05/25 09:21:42;;;;;;;;;;;;;;;20.42;64.82;101389.66;5054189;28;1826;-49
2021/05/25 09:24:08;;;;;;;;;;;;;;;20.46;64.66;101385.72;5056396;28;1902;-48
2021/05/25 09:26:38;;;;;;;;;;;;;;;20.46;64.70;101373.13;5056137;28;1680;-48
2021/05/25 09:29:06;;;;;;;;;;;;;;;20.48;65.28;101364.94;5050782;28;1512;-48
2021/05/25 09:31:38;;;;;;;;;;;;;;;20.45;64.82;101374.13;5053163;28;1424;-49
2021/05/25 09:34:09;;;;;;;;;;;;;;;20.50;65.54;101376.41;5051215;28;1526;-49
2021/05/25 09:36:54;;;;;;;;;;;;;;;20.55;65.08;101390.31;5054876;28;2196;-48
2021/05/25 09:39:20;;;;;;;;;;;;;;;20.60;65.27;101387.25;5059402;28;1784;-49
2021/05/25 09:41:55;;;;;;;;;;;;;;;20.62;65.75;101364.63;5054924;28;1468;-48
2021/05/25 09:44:21;;;;;;;;;;;;;;;20.66;65.58;101349.94;5045838;28;1910;-48
2021/05/25 09:46:48;;;;;;;;;;;;;;;20.75;64.78;101342.06;5054681;28;1769;-48
2021/05/25 09:49:15;;;;;;;;;;;;;;;20.75;65.62;101307.13;5065056;28;1630;-47
2021/05/25 09:51:41;;;;;;;;;;;;;;;20.89;64.63;101298.75;5051030;28;1511;-49
2021/05/25 09:54:17;;;;;;;;;;;;;;;20.94;65.08;101285.72;5051668;28;1423;-47
2021/05/25 09:56:55;;;;;;;;;;;;;;;20.93;64.80;101284.03;5061147;28;1436;-48
2021/05/25 09:59:27;;;;;;;;;;;;;;;20.81;65.57;101280.59;5056065;28;1787;-48
2021/05/25 10:01:53;;;;;;;;;;;;;;;20.89;65.26;101279.03;5049171;28;1601;-48
2021/05/25 10:04:20;;;;;;;;;;;;;;;20.86;65.91;101269.41;5050683;28;2262;-48
2021/05/25 10:06:47;;;;;;;;;;;;;;;20.89;65.93;101247.66;5049176;28;1580;-48
2021/05/25 10:09:13;;;;;;;;;;;;;;;20.89;65.70;101257.53;5048176;28;1705;-48
2021/05/25 10:11:41;;;;;;;;;;;;;;;20.77;65.53;101263.03;5051763;28;1485;-48
2021/05/25 10:14:08;;;;;;;;;;;;;;;20.85;64.69;101256.97;5051636;28;1590;-48
2021/05/25 10:16:38;;;;;;;;;;;;;;;20.94;65.55;101233.78;5048843;28;1620;-48
2021/05/25 10:19:25;;;;;;;;;;;;;;;20.94;63.94;101218.50;5045815;28;1504;-49
2021/05/25 10:21:53;;;;;;;;;;;;;;;20.79;64.98;101203.75;5060397;28;1528;-49
2021/05/25 10:24:19;;;;;;;;;;;;;;;20.84;64.87;101191.59;5056010;28;1914;-48
2021/05/25 10:26:45;;;;;;;;;;;;;;;20.79;65.67;101188.50;5056566;28;1671;-47
2021/05/25 10:29:11;;;;;;;;;;;;;;;20.85;65.09;101200.53;5054747;28;1964;-47
2021/05/25 10:31:39;;;;;;;;;;;;;;;20.98;65.54;101201.09;5050849;28;1891;-47
2021/05/25 10:34:17;;;;;;;;;;;;;;;21.03;64.37;101212.31;5043482;28;1554;-47
2021/05/25 10:36:44;;;;;;;;;;;;;;;20.93;64.54;101219.50;5060163;28;1684;-47
2021/05/25 10:39:28;;;;;;;;;;;;;;;20.97;64.35;101206.63;5060343;28;1418;-47
2021/05/25 10:42:09;;;;;;;;;;;;;;;21.02;64.24;101210.59;5057878;28;1686;-49
2021/05/25 10:44:45;;;;;;;;;;;;;;;21.02;64.33;101213.28;5044234;28;1989;-47
2021/05/25 10:47:18;;;;;;;;;;;;;;;20.97;64.61;101201.25;5064961;28;1300;-49
2021/05/25 10:49:52;;;;;;;;;;;;;;;21.00;65.38;101209.03;5052876;28;1490;-49
2021/05/25 10:52:18;;;;;;;;;;;;;;;20.97;65.81;101210.19;5059389;28;1444;-47
2021/05/25 10:54:53;;;;;;;;;;;;;;;21.06;65.81;101205.81;5053223;28;1541;-48
2021/05/25 10:57:50;;;;;;;;;;;;;;;21.06;65.42;101185.13;5054658;28;1765;-47
2021/05/25 11:00:20;;;;;;;;;;;;;;;21.20;64.67;101165.06;5036299;28;1914;-47
2021/05/25 11:02:54;;;;;;;;;;;;;;;21.18;64.88;101183.16;5044882;28;1786;-49
2021/05/25 11:05:39;;;;;;;;;;;;;;;21.32;65.67;101168.47;5049316;28;1909;-48
2021/05/25 11:08:24;;;;;;;;;;;;;;;21.43;64.98;101165.66;5045140;28;1641;-47
2021/05/25 11:10:53;;;;;;;;;;;;;;;21.61;65.00;101159.59;5046689;28;1609;-46
2021/05/25 11:13:25;;;;;;;;;;;;;;;21.50;65.23;101165.94;5044401;28;1489;-47
2021/05/25 11:16:00;;;;;;;;;;;;;;;21.57;64.17;101139.34;5052451;28;1449;-48
2021/05/25 11:18:29;;;;;;;;;;;;;;;21.51;64.85;101129.16;5048038;28;1489;-48
2021/05/25 11:21:07;;;;;;;;;;;;;;;21.38;65.09;101119.47;5049571;28;1433;-47
2021/05/25 11:23:43;;;;;;;;;;;;;;;21.30;65.90;101113.94;5050865;28;1745;-47
2021/05/25 11:26:10;;;;;;;;;;;;;;;21.28;66.19;101118.63;5051603;28;1880;-47
2021/05/25 11:28:54;;;;;;;;;;;;;;;21.32;66.10;101106.59;5059554;28;1648;-47
2021/05/25 11:31:35;;;;;;;;;;;;;;;21.22;65.95;101103.91;5052675;28;1658;-47
2021/05/25 11:34:02;;;;;;;;;;;;;;;21.26;66.55;101112.53;5048194;28;1498;-48
2021/05/25 11:36:28;;;;;;;;;;;;;;;21.33;65.99;101105.63;5049876;28;1614;-47
2021/05/25 11:38:55;;;;;;;;;;;;;;;21.26;66.80;101104.47;5057752;28;1523;-47
2021/05/25 11:41:22;;;;;;;;;;;;;;;21.31;66.93;101102.22;5055904;28;1434;-48
2021/05/25 11:43:48;;;;;;;;;;;;;;;21.32;66.57;101103.06;5052419;28;1952;-47
2021/05/25 11:46:14;;;;;;;;;;;;;;;21.39;66.45;101096.13;5053879;28;1902;-47
2021/05/25 11:48:40;;;;;;;;;;;;;;;21.29;67.40;101079.13;5055674;28;1592;-46
2021/05/25 11:51:09;;;;;;;;;;;;;;;21.25;67.07;101092.03;5056346;28;1629;-46
2021/05/25 11:53:34;;;;;;;;;;;;;;;21.20;67.24;101086.22;5053960;28;1461;-47
2021/05/25 11:56:01;;;;;;;;;;;;;;;21.23;67.45;101083.25;5046437;28;1537;-47
2021/05/25 11:58:27;;;;;;;;;;;;;;;21.21;67.80;101096.00;5045948;28;1419;-48
2021/05/25 12:00:53;;;;;;;;;;;;;;;21.21;68.06;101094.16;5050586;28;1377;-46
2021/05/25 12:03:19;;;;;;;;;;;;;;;21.20;67.61;101088.91;5045171;28;1556;-47
2021/05/25 12:05:46;;;;;;;;;;;;;;;21.20;67.17;101088.91;5045724;28;1906;-48
2021/05/25 12:08:12;;;;;;;;;;;;;;;21.19;67.24;101081.84;5047146;28;1469;-48
2021/05/25 12:10:39;;;;;;;;;;;;;;;21.23;67.30;101100.22;5050592;28;1615;-47
2021/05/25 12:13:06;;;;;;;;;;;;;;;21.18;67.97;101085.50;5047832;28;1325;-48
2021/05/25 12:15:37;;;;;;;;;;;;;;;21.14;68.44;101084.09;5048092;28;1528;-47
2021/05/25 12:18:08;;;;;;;;;;;;;;;21.05;68.11;101083.97;5045607;28;1489;-47
2021/05/25 12:20:38;;;;;;;;;;;;;;;21.13;68.54;101074.31;5051452;28;1440;-47
2021/05/25 12:23:06;;;;;;;;;;;;;;;21.11;67.84;101109.44;5049561;28;1442;-48
2021/05/25 12:25:32;;;;;;;;;;;;;;;21.10;68.55;101082.69;5050535;28;1991;-46
2021/05/25 12:28:06;;;;;;;;;;;;;;;21.09;68.03;101075.59;5041558;28;1444;-48
2021/05/25 12:30:34;;;;;;;;;;;;;;;21.05;68.81;101064.28;5046134;28;1607;-47
2021/05/25 12:33:00;;;;;;;;;;;;;;;21.03;68.76;101058.22;5048026;28;1489;-47
2021/05/25 12:35:27;;;;;;;;;;;;;;;21.02;67.90;101062.72;5049195;28;1306;-47
2021/05/25 12:38:02;;;;;;;;;;;;;;;20.99;68.24;101054.94;5040960;28;1928;-47
2021/05/25 12:40:29;;;;;;;;;;;;;;;21.03;68.08;101056.38;5046624;28;1627;-46
2021/05/25 12:42:55;;;;;;;;;;;;;;;21.16;67.91;101050.69;5044980;28;1605;-47
2021/05/25 12:45:21;;;;;;;;;;;;;;;21.14;67.03;101047.28;5049617;28;1969;-47
2021/05/25 12:47:52;;;;;;;;;;;;;;;21.09;67.19;101057.63;5048302;28;1528;-48
2021/05/25 12:50:24;;;;;;;;;;;;;;;21.13;67.61;101055.50;5060297;28;1654;-47
2021/05/25 12:53:01;;;;;;;;;;;;;;;21.09;67.25;101054.09;5056775;28;1570;-48
2021/05/25 12:55:27;;;;;;;;;;;;;;;21.24;67.48;101031.16;5047980;28;1524;-47
2021/05/25 12:57:54;;;;;;;;;;;;;;;21.25;65.98;101043.63;5047451;28;1944;-47
2021/05/25 13:00:25;;;;;;;;;;;;;;;21.24;66.79;101033.84;5042257;28;1809;-47
2021/05/25 13:02:52;;;;;;;;;;;;;;;21.32;65.18;101039.34;5047425;28;1597;-47